sensor_id;sensor_type;location;lat;lon;timestamp;pressure;altitude;pressure_sealevel;temperature;humidity
13314;BME280;6725;48.112;11.604;2022-10-16T00:00:19;93974.72;;;13.23;100.00
13314;BME280;6725;48.112;11.604;2022-10-16T00:02:45;93965.88;;;13.19;100.00
13314;BME280;6725;48.112;11.604;2022-10-16T00:05:10;93965.56;;;13.17;100.00
13314;BME280;6725;48.112;11.604;2022-10-16T00:07:35;93960.06;;;13.17;100.00
13314;BME280;6725;48.112;11.604;2022-10-16T00:10:01;93954.31;;;13.15;100.00
13314;BME280;6725;48.112;11.604;2022-10-16T00:12:26;93953.97;;;13.13;100.00
13314;BME280;6725;48.112;11.604;2022-10-16T00:14:51;93950.91;;;13.11;100.00
13314;BME280;6725;48.112;11.604;2022-10-16T00:17:17;93955.78;;;13.07;100.00
13314;BME280;6725;48.112;11.604;2022-10-16T00:19:42;93953.66;;;13.02;100.00
13314;BME280;6725;48.112;11.604;2022-10-16T00:22:08;93953.03;;;12.98;100.00
13314;BME280;6725;48.112;11.604;2022-10-16T00:24:33;93952.41;;;12.94;100.00
13314;BME280;6725;48.112;11.604;2022-10-16T00:26:58;93952.53;;;12.90;100.00
13314;BME280;6725;48.112;11.604;2022-10-16T00:29:24;93942.94;;;12.86;100.00
13314;BME280;6725;48.112;11.604;2022-10-16T00:31:49;93947.81;;;12.82;100.00
13314;BME280;6725;48.112;11.604;2022-10-16T00:34:14;93945.97;;;12.79;100.00
13314;BME280;6725;48.112;11.604;2022-10-16T00:36:40;93943.22;;;12.79;100.00
13314;BME280;6725;48.112;11.604;2022-10-16T00:39:05;93951.88;;;12.77;100.00
13314;BME280;6725;48.112;11.604;2022-10-16T00:41:31;93950.81;;;12.75;100.00
13314;BME280;6725;48.112;11.604;2022-10-16T00:43:59;93950.50;;;12.73;100.00
13314;BME280;6725;48.112;11.604;2022-10-16T00:46:40;93939.22;;;12.71;100.00
13314;BME280;6725;48.112;11.604;2022-10-16T00:49:10;93934.66;;;12.68;100.00
13314;BME280;6725;48.112;11.604;2022-10-16T00:54:16;93923.72;;;12.68;100.00
13314;BME280;6725;48.112;11.604;2022-10-16T00:56:44;93919.44;;;12.67;100.00
13314;BME280;6725;48.112;11.604;2022-10-16T00:59:18;93915.78;;;12.70;100.00
13314;BME280;6725;48.112;11.604;2022-10-16T01:01:44;93903.31;;;12.69;100.00
13314;BME280;6725;48.112;11.604;2022-10-16T01:04:10;93906.06;;;12.69;100.00
13314;BME280;6725;48.112;11.604;2022-10-16T01:12:41;93904.84;;;12.70;100.00
13314;BME280;6725;48.112;11.604;2022-10-16T01:17:51;93919.88;;;12.65;100.00
13314;BME280;6725;48.112;11.604;2022-10-16T01:31:27;93930.38;;;12.58;100.00
13314;BME280;6725;48.112;11.604;2022-10-16T01:34:02;93926.56;;;12.55;100.00
13314;BME280;6725;48.112;11.604;2022-10-16T01:36:41;93922.75;;;12.53;100.00
13314;BME280;6725;48.112;11.604;2022-10-16T01:39:11;93933.06;;;12.49;100.00
13314;BME280;6725;48.112;11.604;2022-10-16T01:41:41;93920.59;;;12.48;100.00
13314;BME280;6725;48.112;11.604;2022-10-16T01:44:13;93931.38;;;12.42;100.00
13314;BME280;6725;48.112;11.604;2022-10-16T01:46:43;93920.13;;;12.40;100.00
13314;BME280;6725;48.112;11.604;2022-10-16T01:49:11;93917.06;;;12.38;100.00
13314;BME280;6725;48.112;11.604;2022-10-16T01:51:37;93928.16;;;12.35;100.00
13314;BME280;6725;48.112;11.604;2022-10-16T01:54:05;93926.31;;;12.32;100.00
13314;BME280;6725;48.112;11.604;2022-10-16T01:56:33;93927.53;;;12.31;100.00
13314;BME280;6725;48.112;11.604;2022-10-16T01:59:06;93926.88;;;12.27;100.00
13314;BME280;6725;48.112;11.604;2022-10-16T02:01:35;93919.88;;;12.26;100.00
13314;BME280;6725;48.112;11.604;2022-10-16T02:04:09;93916.84;;;12.24;100.00
13314;BME280;6725;48.112;11.604;2022-10-16T02:06:37;93920.03;;;12.22;100.00
13314;BME280;6725;48.112;11.604;2022-10-16T02:09:02;93915.00;;;12.21;100.00
13314;BME280;6725;48.112;11.604;2022-10-16T02:11:27;93917.75;;;12.21;100.00
13314;BME280;6725;48.112;11.604;2022-10-16T02:13:58;93913.78;;;12.22;100.00
13314;BME280;6725;48.112;11.604;2022-10-16T02:16:36;93898.00;;;12.26;100.00
13314;BME280;6725;48.112;11.604;2022-10-16T02:19:02;93891.47;;;12.32;100.00
13314;BME280;6725;48.112;11.604;2022-10-16T02:21:33;93883.91;;;12.36;100.00
13314;BME280;6725;48.112;11.604;2022-10-16T02:27:17;93873.13;;;12.42;100.00
13314;BME280;6725;48.112;11.604;2022-10-16T02:29:48;93873.13;;;12.42;100.00
13314;BME280;6725;48.112;11.604;2022-10-16T02:32:19;93872.34;;;12.41;100.00
13314;BME280;6725;48.112;11.604;2022-10-16T02:34:48;93867.00;;;12.38;100.00
13314;BME280;6725;48.112;11.604;2022-10-16T02:37:14;93877.34;;;12.34;100.00
13314;BME280;6725;48.112;11.604;2022-10-16T02:39:41;93876.44;;;12.37;100.00
13314;BME280;6725;48.112;11.604;2022-10-16T02:42:12;93879.19;;;12.37;100.00
13314;BME280;6725;48.112;11.604;2022-10-16T02:44:38;93880.41;;;12.36;100.00
13314;BME280;6725;48.112;11.604;2022-10-16T02:47:03;93882.69;;;12.37;100.00
13314;BME280;6725;48.112;11.604;2022-10-16T02:49:28;93886.16;;;12.38;100.00
13314;BME280;6725;48.112;11.604;2022-10-16T02:51:54;93893.75;;;12.34;100.00
13314;BME280;6725;48.112;11.604;2022-10-16T02:54:20;93895.31;;;12.35;100.00
13314;BME280;6725;48.112;11.604;2022-10-16T02:56:45;93893.03;;;12.33;100.00
13314;BME280;6725;48.112;11.604;2022-10-16T02:59:10;93901.69;;;12.32;100.00
13314;BME280;6725;48.112;11.604;2022-10-16T03:01:36;93900.16;;;12.31;100.00
13314;BME280;6725;48.112;11.604;2022-10-16T03:04:01;93895.13;;;12.29;100.00
13314;BME280;6725;48.112;11.604;2022-10-16T03:06:26;93903.47;;;12.26;100.00
13314;BME280;6725;48.112;11.604;2022-10-16T03:08:52;93900.44;;;12.24;100.00
13314;BME280;6725;48.112;11.604;2022-10-16T03:11:17;93899.81;;;12.20;100.00
13314;BME280;6725;48.112;11.604;2022-10-16T03:13:42;93892.78;;;12.19;100.00
13314;BME280;6725;48.112;11.604;2022-10-16T03:16:08;93896.13;;;12.14;100.00
13314;BME280;6725;48.112;11.604;2022-10-16T03:18:33;93909.47;;;12.12;100.00
13314;BME280;6725;48.112;11.604;2022-10-16T03:20:59;93909.63;;;12.08;100.00
13314;BME280;6725;48.112;11.604;2022-10-16T03:23:24;93910.41;;;12.09;100.00
13314;BME280;6725;48.112;11.604;2022-10-16T03:25:49;93912.81;;;12.07;100.00
13314;BME280;6725;48.112;11.604;2022-10-16T03:28:15;93910.84;;;12.07;100.00
13314;BME280;6725;48.112;11.604;2022-10-16T03:30:40;93910.97;;;12.04;100.00
13314;BME280;6725;48.112;11.604;2022-10-16T03:33:06;93913.25;;;12.05;100.00
13314;BME280;6725;48.112;11.604;2022-10-16T03:35:32;93913.72;;;12.04;100.00
13314;BME280;6725;48.112;11.604;2022-10-16T03:37:58;93910.97;;;12.04;100.00
13314;BME280;6725;48.112;11.604;2022-10-16T03:40:23;93903.53;;;12.04;100.00
13314;BME280;6725;48.112;11.604;2022-10-16T03:42:49;93899.47;;;12.09;100.00
13314;BME280;6725;48.112;11.604;2022-10-16T03:45:14;93901.59;;;12.14;100.00
13314;BME280;6725;48.112;11.604;2022-10-16T03:47:39;93907.69;;;12.18;100.00
13314;BME280;6725;48.112;11.604;2022-10-16T03:50:05;93914.88;;;12.24;100.00
13314;BME280;6725;48.112;11.604;2022-10-16T03:52:31;93913.53;;;12.29;100.00
13314;BME280;6725;48.112;11.604;2022-10-16T03:54:57;93904.72;;;12.34;100.00
13314;BME280;6725;48.112;11.604;2022-10-16T03:57:22;93901.41;;;12.39;100.00
13314;BME280;6725;48.112;11.604;2022-10-16T03:59:48;93895.94;;;12.39;100.00
13314;BME280;6725;48.112;11.604;2022-10-16T04:02:13;93890.19;;;12.46;100.00
13314;BME280;6725;48.112;11.604;2022-10-16T04:04:39;93892.31;;;12.51;100.00
13314;BME280;6725;48.112;11.604;2022-10-16T04:07:04;93893.81;;;12.52;100.00
13314;BME280;6725;48.112;11.604;2022-10-16T04:09:30;93889.91;;;12.53;100.00
13314;BME280;6725;48.112;11.604;2022-10-16T04:11:55;93888.34;;;12.52;100.00
13314;BME280;6725;48.112;11.604;2022-10-16T04:14:21;93880.47;;;12.54;100.00
13314;BME280;6725;48.112;11.604;2022-10-16T04:16:46;93887.78;;;12.57;100.00
13314;BME280;6725;48.112;11.604;2022-10-16T04:19:12;93888.69;;;12.63;100.00
13314;BME280;6725;48.112;11.604;2022-10-16T04:21:37;93883.81;;;12.67;100.00
13314;BME280;6725;48.112;11.604;2022-10-16T04:24:03;93884.59;;;12.67;100.00
13314;BME280;6725;48.112;11.604;2022-10-16T04:26:28;93894.03;;;12.66;100.00
13314;BME280;6725;48.112;11.604;2022-10-16T04:28:54;93894.31;;;12.68;100.00
13314;BME280;6725;48.112;11.604;2022-10-16T04:31:20;93892.38;;;12.69;100.00
13314;BME280;6725;48.112;11.604;2022-10-16T04:33:45;93897.84;;;12.69;100.00
13314;BME280;6725;48.112;11.604;2022-10-16T04:36:11;93899.34;;;12.70;100.00
13314;BME280;6725;48.112;11.604;2022-10-16T04:38:36;93908.78;;;12.69;100.00
13314;BME280;6725;48.112;11.604;2022-10-16T04:41:03;93907.28;;;12.68;100.00
13314;BME280;6725;48.112;11.604;2022-10-16T04:43:28;93897.69;;;12.72;100.00
13314;BME280;6725;48.112;11.604;2022-10-16T04:45:54;93907.28;;;12.68;100.00
13314;BME280;6725;48.112;11.604;2022-10-16T04:48:20;93906.34;;;12.71;100.00
13314;BME280;6725;48.112;11.604;2022-10-16T04:50:45;93919.75;;;12.69;100.00
13314;BME280;6725;48.112;11.604;2022-10-16T04:53:11;93915.78;;;12.70;100.00
13314;BME280;6725;48.112;11.604;2022-10-16T04:55:37;93910.63;;;12.72;100.00
13314;BME280;6725;48.112;11.604;2022-10-16T04:58:03;93907.00;;;12.75;100.00
13314;BME280;6725;48.112;11.604;2022-10-16T05:00:28;93904.56;;;12.77;100.00
13314;BME280;6725;48.112;11.604;2022-10-16T05:02:53;93908.81;;;12.78;100.00
13314;BME280;6725;48.112;11.604;2022-10-16T05:05:19;93908.81;;;12.78;100.00
13314;BME280;6725;48.112;11.604;2022-10-16T05:07:45;93913.38;;;12.81;100.00
13314;BME280;6725;48.112;11.604;2022-10-16T05:10:11;93916.75;;;12.85;100.00
13314;BME280;6725;48.112;11.604;2022-10-16T05:12:36;93917.34;;;12.89;100.00
13314;BME280;6725;48.112;11.604;2022-10-16T05:15:02;93907.94;;;12.90;100.00
13314;BME280;6725;48.112;11.604;2022-10-16T05:17:27;93907.94;;;12.90;100.00
13314;BME280;6725;48.112;11.604;2022-10-16T05:19:52;93914.47;;;12.92;100.00
13314;BME280;6725;48.112;11.604;2022-10-16T05:22:18;93912.34;;;12.96;100.00
13314;BME280;6725;48.112;11.604;2022-10-16T05:24:43;93911.03;;;13.01;100.00
13314;BME280;6725;48.112;11.604;2022-10-16T05:27:10;93915.59;;;13.04;100.00
13314;BME280;6725;48.112;11.604;2022-10-16T05:29:35;93920.47;;;13.09;100.00
13314;BME280;6725;48.112;11.604;2022-10-16T05:32:01;93927.47;;;13.10;100.00
13314;BME280;6725;48.112;11.604;2022-10-16T05:34:26;93932.38;;;13.15;100.00
13314;BME280;6725;48.112;11.604;2022-10-16T05:36:52;93930.53;;;13.21;100.00
13314;BME280;6725;48.112;11.604;2022-10-16T05:39:17;93928.41;;;13.25;100.00
13314;BME280;6725;48.112;11.604;2022-10-16T05:41:43;93945.91;;;13.27;100.00
13314;BME280;6725;48.112;11.604;2022-10-16T05:44:08;93950.94;;;13.29;100.00
13314;BME280;6725;48.112;11.604;2022-10-16T05:46:34;93963.28;;;13.33;100.00
13314;BME280;6725;48.112;11.604;2022-10-16T05:48:59;93972.16;;;13.47;100.00
13314;BME280;6725;48.112;11.604;2022-10-16T05:51:25;93961.00;;;13.77;100.00
13314;BME280;6725;48.112;11.604;2022-10-16T05:53:51;93944.78;;;14.33;100.00
13314;BME280;6725;48.112;11.604;2022-10-16T05:56:17;93954.75;;;14.63;100.00
13314;BME280;6725;48.112;11.604;2022-10-16T05:58:42;93981.25;;;14.75;100.00
13314;BME280;6725;48.112;11.604;2022-10-16T06:01:17;94024.97;;;14.64;100.00
13314;BME280;6725;48.112;11.604;2022-10-16T06:03:43;94056.31;;;14.49;100.00
13314;BME280;6725;48.112;11.604;2022-10-16T06:06:12;94078.13;;;14.34;100.00
13314;BME280;6725;48.112;11.604;2022-10-16T06:08:39;94092.19;;;14.27;100.00
13314;BME280;6725;48.112;11.604;2022-10-16T06:11:07;94097.06;;;14.32;100.00
13314;BME280;6725;48.112;11.604;2022-10-16T06:13:33;94102.25;;;14.30;100.00
13314;BME280;6725;48.112;11.604;2022-10-16T06:15:59;94115.06;;;14.33;100.00
13314;BME280;6725;48.112;11.604;2022-10-16T06:18:27;94114.78;;;14.40;100.00
13314;BME280;6725;48.112;11.604;2022-10-16T06:20:53;94123.91;;;14.46;100.00
13314;BME280;6725;48.112;11.604;2022-10-16T06:23:18;94135.50;;;14.50;100.00
13314;BME280;6725;48.112;11.604;2022-10-16T06:25:44;94138.56;;;14.52;100.00
13314;BME280;6725;48.112;11.604;2022-10-16T06:28:09;94138.84;;;14.63;100.00
13314;BME280;6725;48.112;11.604;2022-10-16T06:30:34;94155.63;;;14.74;100.00
13314;BME280;6725;48.112;11.604;2022-10-16T06:33:00;94157.44;;;14.86;100.00
13314;BME280;6725;48.112;11.604;2022-10-16T06:35:25;94170.88;;;15.02;100.00
13314;BME280;6725;48.112;11.604;2022-10-16T06:37:52;94176.03;;;15.18;100.00
13314;BME280;6725;48.112;11.604;2022-10-16T06:40:18;94192.34;;;15.22;100.00
13314;BME280;6725;48.112;11.604;2022-10-16T06:42:43;94195.56;;;15.29;100.00
13314;BME280;6725;48.112;11.604;2022-10-16T06:45:09;94215.88;;;15.32;100.00
13314;BME280;6725;48.112;11.604;2022-10-16T06:47:34;94219.69;;;15.34;100.00
13314;BME280;6725;48.112;11.604;2022-10-16T06:50:00;94232.28;;;15.35;100.00
13314;BME280;6725;48.112;11.604;2022-10-16T06:52:27;94236.06;;;15.38;100.00
13314;BME280;6725;48.112;11.604;2022-10-16T06:54:53;94244.91;;;15.33;100.00
13314;BME280;6725;48.112;11.604;2022-10-16T06:57:18;94247.50;;;15.45;100.00
13314;BME280;6725;48.112;11.604;2022-10-16T06:59:44;94254.97;;;15.54;100.00
13314;BME280;6725;48.112;11.604;2022-10-16T07:02:10;94257.88;;;15.68;100.00
13314;BME280;6725;48.112;11.604;2022-10-16T07:04:36;94272.22;;;15.72;100.00
13314;BME280;6725;48.112;11.604;2022-10-16T07:07:01;94276.75;;;15.93;100.00
13314;BME280;6725;48.112;11.604;2022-10-16T07:09:27;94288.03;;;16.04;100.00
13314;BME280;6725;48.112;11.604;2022-10-16T07:11:52;94286.06;;;16.28;100.00
13314;BME280;6725;48.112;11.604;2022-10-16T07:14:20;94296.69;;;16.54;100.00
13314;BME280;6725;48.112;11.604;2022-10-16T07:16:47;94294.56;;;16.96;100.00
13314;BME280;6725;48.112;11.604;2022-10-16T07:19:13;94275.28;;;18.21;100.00
13314;BME280;6725;48.112;11.604;2022-10-16T07:21:41;94241.38;;;20.17;100.00
13314;BME280;6725;48.112;11.604;2022-10-16T07:24:10;94256.22;;;21.62;100.00
13314;BME280;6725;48.112;11.604;2022-10-16T07:26:36;94310.19;;;22.75;100.00
13314;BME280;6725;48.112;11.604;2022-10-16T07:29:04;94397.91;;;23.59;100.00
13314;BME280;6725;48.112;11.604;2022-10-16T07:31:29;94484.59;;;24.91;100.00
13314;BME280;6725;48.112;11.604;2022-10-16T07:33:55;94686.47;;;25.14;100.00
13314;BME280;6725;48.112;11.604;2022-10-16T07:36:22;95227.69;;;25.37;100.00
13314;BME280;6725;48.112;11.604;2022-10-16T07:38:48;95329.88;;;24.96;100.00
13314;BME280;6725;48.112;11.604;2022-10-16T07:41:16;95386.03;;;25.82;100.00
13314;BME280;6725;48.112;11.604;2022-10-16T07:43:46;95413.25;;;25.71;100.00
13314;BME280;6725;48.112;11.604;2022-10-16T07:46:12;95439.22;;;26.35;100.00
13314;BME280;6725;48.112;11.604;2022-10-16T07:48:38;95462.81;;;26.98;100.00
13314;BME280;6725;48.112;11.604;2022-10-16T07:51:06;95477.59;;;27.21;100.00
13314;BME280;6725;48.112;11.604;2022-10-16T07:53:32;95488.56;;;27.52;100.00
13314;BME280;6725;48.112;11.604;2022-10-16T07:56:03;95490.09;;;27.69;100.00
13314;BME280;6725;48.112;11.604;2022-10-16T07:58:29;95505.91;;;27.67;100.00
13314;BME280;6725;48.112;11.604;2022-10-16T08:00:55;95502.78;;;26.71;100.00
13314;BME280;6725;48.112;11.604;2022-10-16T08:03:21;95481.41;;;25.68;100.00
13314;BME280;6725;48.112;11.604;2022-10-16T08:05:46;95480.16;;;25.74;100.00
13314;BME280;6725;48.112;11.604;2022-10-16T08:08:13;95491.31;;;26.80;100.00
13314;BME280;6725;48.112;11.604;2022-10-16T08:10:39;95501.56;;;27.71;100.00
13314;BME280;6725;48.112;11.604;2022-10-16T08:13:04;95523.59;;;28.58;100.00
13314;BME280;6725;48.112;11.604;2022-10-16T08:15:30;95521.31;;;29.72;94.05
13314;BME280;6725;48.112;11.604;2022-10-16T08:18:00;95532.97;;;30.17;85.58
13314;BME280;6725;48.112;11.604;2022-10-16T08:20:27;95534.47;;;30.18;85.15
13314;BME280;6725;48.112;11.604;2022-10-16T08:22:53;95538.78;;;30.24;82.55
13314;BME280;6725;48.112;11.604;2022-10-16T08:25:19;95541.75;;;30.08;79.79
13314;BME280;6725;48.112;11.604;2022-10-16T08:27:45;95541.97;;;29.86;80.02
13314;BME280;6725;48.112;11.604;2022-10-16T08:30:10;95547.75;;;30.23;76.98
13314;BME280;6725;48.112;11.604;2022-10-16T08:32:36;95555.94;;;30.69;76.23
13314;BME280;6725;48.112;11.604;2022-10-16T08:35:01;95557.81;;;30.85;72.38
13314;BME280;6725;48.112;11.604;2022-10-16T08:37:31;95554.22;;;30.42;74.78
13314;BME280;6725;48.112;11.604;2022-10-16T08:39:56;95559.66;;;31.20;72.39
13314;BME280;6725;48.112;11.604;2022-10-16T08:48:25;95554.47;;;30.86;69.45
13314;BME280;6725;48.112;11.604;2022-10-16T08:50:53;95563.31;;;30.96;70.44
13314;BME280;6725;48.112;11.604;2022-10-16T08:53:30;95569.78;;;30.72;67.16
13314;BME280;6725;48.112;11.604;2022-10-16T08:55:58;95566.03;;;30.40;68.90
13314;BME280;6725;48.112;11.604;2022-10-16T08:58:29;95574.78;;;30.37;69.49
13314;BME280;6725;48.112;11.604;2022-10-16T09:00:57;95577.00;;;30.20;70.46
13314;BME280;6725;48.112;11.604;2022-10-16T09:06:45;95579.50;;;31.14;67.20
13314;BME280;6725;48.112;11.604;2022-10-16T09:12:25;95588.75;;;31.83;62.38
13314;BME280;6725;48.112;11.604;2022-10-16T09:15:12;95592.16;;;31.63;63.83
13314;BME280;6725;48.112;11.604;2022-10-16T09:25:31;95586.00;;;31.78;61.13
13314;BME280;6725;48.112;11.604;2022-10-16T09:27:57;95586.63;;;31.89;60.50
13314;BME280;6725;48.112;11.604;2022-10-16T09:30:27;95591.31;;;32.00;62.93
13314;BME280;6725;48.112;11.604;2022-10-16T09:32:53;95585.41;;;32.29;60.96
13314;BME280;6725;48.112;11.604;2022-10-16T09:35:31;95589.97;;;31.88;62.51
13314;BME280;6725;48.112;11.604;2022-10-16T09:37:58;95588.13;;;31.90;62.50
13314;BME280;6725;48.112;11.604;2022-10-16T09:40:26;95596.22;;;32.44;61.25
13314;BME280;6725;48.112;11.604;2022-10-16T09:45:39;95583.25;;;31.91;60.01
13314;BME280;6725;48.112;11.604;2022-10-16T09:48:12;95588.56;;;32.26;61.63
13314;BME280;6725;48.112;11.604;2022-10-16T09:50:38;95595.81;;;31.58;59.01
13314;BME280;6725;48.112;11.604;2022-10-16T09:53:14;95608.47;;;31.70;59.67
13314;BME280;6725;48.112;11.604;2022-10-16T09:55:50;95605.09;;;31.90;58.75
13314;BME280;6725;48.112;11.604;2022-10-16T09:58:15;95596.63;;;31.40;60.43
13314;BME280;6725;48.112;11.604;2022-10-16T10:00:42;95606.44;;;31.52;57.80
13314;BME280;6725;48.112;11.604;2022-10-16T10:03:30;95609.72;;;32.06;57.19
13314;BME280;6725;48.112;11.604;2022-10-16T10:05:58;95604.91;;;32.01;57.47
13314;BME280;6725;48.112;11.604;2022-10-16T10:08:24;95612.69;;;32.84;57.65
13314;BME280;6725;48.112;11.604;2022-10-16T10:10:49;95620.91;;;32.56;55.11
13314;BME280;6725;48.112;11.604;2022-10-16T10:13:22;95621.31;;;32.34;55.87
13314;BME280;6725;48.112;11.604;2022-10-16T10:15:50;95606.97;;;32.32;57.75
13314;BME280;6725;48.112;11.604;2022-10-16T10:18:20;95603.31;;;32.50;56.56
13314;BME280;6725;48.112;11.604;2022-10-16T10:21:00;95595.78;;;32.79;54.67
13314;BME280;6725;48.112;11.604;2022-10-16T10:23:27;95600.47;;;33.02;53.92
13314;BME280;6725;48.112;11.604;2022-10-16T10:26:06;95610.03;;;33.38;53.14
13314;BME280;6725;48.112;11.604;2022-10-16T10:34:39;95607.41;;;31.73;58.66
13314;BME280;6725;48.112;11.604;2022-10-16T10:45:27;95597.09;;;32.07;59.36
13314;BME280;6725;48.112;11.604;2022-10-16T10:50:26;95593.78;;;31.90;56.51
13314;BME280;6725;48.112;11.604;2022-10-16T10:56:16;95593.53;;;31.38;59.90
13314;BME280;6725;48.112;11.604;2022-10-16T10:59:07;95599.31;;;30.66;60.35
13314;BME280;6725;48.112;11.604;2022-10-16T11:01:56;95609.75;;;29.64;59.49
13314;BME280;6725;48.112;11.604;2022-10-16T11:04:53;95602.00;;;28.78;62.16
13314;BME280;6725;48.112;11.604;2022-10-16T11:07:33;95605.47;;;28.15;66.73
13314;BME280;6725;48.112;11.604;2022-10-16T11:10:12;95598.06;;;27.68;65.67
13314;BME280;6725;48.112;11.604;2022-10-16T11:12:42;95596.44;;;27.12;67.71
13314;BME280;6725;48.112;11.604;2022-10-16T11:15:14;95595.06;;;26.86;68.97
13314;BME280;6725;48.112;11.604;2022-10-16T11:18:03;95590.63;;;26.57;71.77
13314;BME280;6725;48.112;11.604;2022-10-16T11:20:45;95596.03;;;26.24;69.29
13314;BME280;6725;48.112;11.604;2022-10-16T11:23:35;95592.19;;;26.16;70.98
13314;BME280;6725;48.112;11.604;2022-10-16T11:26:06;95591.38;;;26.10;74.29
13314;BME280;6725;48.112;11.604;2022-10-16T11:28:38;95590.22;;;25.91;73.98
13314;BME280;6725;48.112;11.604;2022-10-16T11:31:29;95590.66;;;25.84;78.68
13314;BME280;6725;48.112;11.604;2022-10-16T11:37:00;95580.53;;;25.56;83.99
13314;BME280;6725;48.112;11.604;2022-10-16T11:39:29;95575.69;;;25.56;84.13
13314;BME280;6725;48.112;11.604;2022-10-16T11:42:02;95574.41;;;25.52;85.60
13314;BME280;6725;48.112;11.604;2022-10-16T11:44:37;95572.09;;;25.50;89.55
13314;BME280;6725;48.112;11.604;2022-10-16T11:49:59;95573.63;;;25.51;81.53
13314;BME280;6725;48.112;11.604;2022-10-16T11:52:33;95573.28;;;25.43;83.07
13314;BME280;6725;48.112;11.604;2022-10-16T11:55:15;95575.59;;;25.45;81.40
13314;BME280;6725;48.112;11.604;2022-10-16T11:57:51;95575.63;;;25.51;83.12
13314;BME280;6725;48.112;11.604;2022-10-16T12:00:30;95582.25;;;25.53;79.00
13314;BME280;6725;48.112;11.604;2022-10-16T12:03:21;95578.94;;;25.49;78.56
13314;BME280;6725;48.112;11.604;2022-10-16T12:08:36;95584.16;;;25.36;73.77
13314;BME280;6725;48.112;11.604;2022-10-16T12:11:20;95589.31;;;25.43;71.03
13314;BME280;6725;48.112;11.604;2022-10-16T12:13:47;95589.63;;;25.51;74.38
13314;BME280;6725;48.112;11.604;2022-10-16T12:18:48;95585.06;;;25.53;72.98
13314;BME280;6725;48.112;11.604;2022-10-16T12:21:15;95587.59;;;25.51;74.90
13314;BME280;6725;48.112;11.604;2022-10-16T12:23:56;95589.41;;;25.54;75.64
13314;BME280;6725;48.112;11.604;2022-10-16T12:26:32;95585.84;;;25.54;73.10
13314;BME280;6725;48.112;11.604;2022-10-16T12:31:48;95580.09;;;25.37;76.72
13314;BME280;6725;48.112;11.604;2022-10-16T12:34:23;95575.53;;;25.39;77.18
13314;BME280;6725;48.112;11.604;2022-10-16T12:36:53;95579.56;;;25.33;77.55
13314;BME280;6725;48.112;11.604;2022-10-16T12:39:24;95572.34;;;25.26;76.74
13314;BME280;6725;48.112;11.604;2022-10-16T12:42:05;95576.47;;;25.31;75.18
13314;BME280;6725;48.112;11.604;2022-10-16T12:44:33;95582.50;;;25.24;75.77
13314;BME280;6725;48.112;11.604;2022-10-16T12:46:59;95574.28;;;25.15;79.27
13314;BME280;6725;48.112;11.604;2022-10-16T12:51:53;95581.69;;;25.18;75.93
13314;BME280;6725;48.112;11.604;2022-10-16T12:54:38;95584.47;;;25.18;77.02
13314;BME280;6725;48.112;11.604;2022-10-16T13:11:08;95575.50;;;25.08;78.59
13314;BME280;6725;48.112;11.604;2022-10-16T13:21:53;95575.00;;;25.10;82.42
13314;BME280;6725;48.112;11.604;2022-10-16T13:27:23;95578.06;;;25.12;82.25
13314;BME280;6725;48.112;11.604;2022-10-16T13:30:01;95585.88;;;25.08;79.00
13314;BME280;6725;48.112;11.604;2022-10-16T13:32:27;95581.34;;;25.10;80.54
13314;BME280;6725;48.112;11.604;2022-10-16T13:34:53;95576.13;;;24.98;82.96
13314;BME280;6725;48.112;11.604;2022-10-16T13:37:24;95577.69;;;24.99;83.20
13314;BME280;6725;48.112;11.604;2022-10-16T13:39:50;95581.41;;;24.90;81.25
13314;BME280;6725;48.112;11.604;2022-10-16T13:42:26;95580.69;;;24.95;80.70
13314;BME280;6725;48.112;11.604;2022-10-16T13:44:54;95582.88;;;24.86;80.63
13314;BME280;6725;48.112;11.604;2022-10-16T13:47:26;95585.66;;;24.86;79.49
13314;BME280;6725;48.112;11.604;2022-10-16T13:50:14;95586.63;;;24.83;78.41
13314;BME280;6725;48.112;11.604;2022-10-16T13:52:41;95591.69;;;24.79;79.68
13314;BME280;6725;48.112;11.604;2022-10-16T13:55:18;95586.63;;;24.83;81.40
13314;BME280;6725;48.112;11.604;2022-10-16T13:57:44;95577.75;;;24.84;83.73
13314;BME280;6725;48.112;11.604;2022-10-16T14:00:36;95582.53;;;24.78;84.61
13314;BME280;6725;48.112;11.604;2022-10-16T14:03:05;95586.88;;;24.79;85.97
13314;BME280;6725;48.112;11.604;2022-10-16T14:05:31;95584.22;;;24.70;86.63
13314;BME280;6725;48.112;11.604;2022-10-16T14:07:58;95601.09;;;24.61;83.31
13314;BME280;6725;48.112;11.604;2022-10-16T14:10:31;95602.94;;;24.64;81.97
13314;BME280;6725;48.112;11.604;2022-10-16T14:13:07;95601.50;;;24.69;81.56
13314;BME280;6725;48.112;11.604;2022-10-16T14:15:35;95595.91;;;24.69;82.58
13314;BME280;6725;48.112;11.604;2022-10-16T14:18:02;95597.69;;;24.72;81.53
13314;BME280;6725;48.112;11.604;2022-10-16T14:20:31;95591.41;;;24.77;82.36
13314;BME280;6725;48.112;11.604;2022-10-16T14:23:03;95593.97;;;24.80;83.67
13314;BME280;6725;48.112;11.604;2022-10-16T14:25:30;95590.94;;;24.78;85.50
13314;BME280;6725;48.112;11.604;2022-10-16T14:28:20;95591.78;;;24.64;88.63
13314;BME280;6725;48.112;11.604;2022-10-16T14:31:25;95591.94;;;24.61;84.87
13314;BME280;6725;48.112;11.604;2022-10-16T14:33:51;95595.75;;;24.58;83.88
13314;BME280;6725;48.112;11.604;2022-10-16T14:36:17;95597.53;;;24.61;83.71
13314;BME280;6725;48.112;11.604;2022-10-16T14:39:02;95597.38;;;24.50;82.52
13314;BME280;6725;48.112;11.604;2022-10-16T14:41:30;95597.81;;;24.43;82.92
13314;BME280;6725;48.112;11.604;2022-10-16T14:44:01;95601.44;;;24.49;83.96
13314;BME280;6725;48.112;11.604;2022-10-16T14:46:36;95597.81;;;24.43;85.08
13314;BME280;6725;48.112;11.604;2022-10-16T14:49:13;95598.03;;;24.39;84.57
13314;BME280;6725;48.112;11.604;2022-10-16T14:51:41;95590.78;;;24.27;87.08
13314;BME280;6725;48.112;11.604;2022-10-16T14:54:11;95595.00;;;24.23;86.82